Tiempo atmosférico en la estación meteorológica de Morón De Almazán , Soria (978 m.)



Fecha
DESCASC
Temp. máxima en grados centígrados (hora)
DESCASC
Temp. mínima en grados centígrados (hora)
DESCASC
Temp. media en grados centígrados
DESCASC
Racha de viento máxima en m/sg (hora)
DESCASC
Velocidad máxima media en intervalos de 10 minutos(hora)
DESCASC
Precipitaciones diarias en mm
DESCASC
Precipitaciones de 00:00 a 06:00 en mm
DESCASC
Precipitaciones de 06:00 a 12:00 en mm
DESCASC
Precipitaciones de 12:00 a 18:00 en mm
DESCASC
Precipitaciones de 18:00 a 24:00 en mm
DESCASC
16-01-2020 10.9 (15:40) 1.9 (21:40) 6.4 12.5 (14:20) 9.72 (14:30) 0 0 0 0 0
15-01-2020 8.7 (15:00) 1.3 (00:30) 5 14.44 (13:30) 10 (13:10) 0 0 0 0 0
14-01-2020 6.5 (16:20) -4.5 (06:10) 1 9.44 (21:40) 6.11 (21:40) 0 0 0 0 0
13-01-2020 9.4 (13:40) -7.3 (07:20) 1 8.61 (22:50) 6.11 (13:10) 0 0 0 0 0
12-01-2020 8.5 (16:00) -7.6 (01:00) 0.5 9.17 (14:50) 6.39 (14:50) 0 0 0 0 0
11-01-2020 9.1 (16:10) -7.4 (-00:0) 0.9 10.28 (00:10) 6.67 (00:10) 0 0 0 0 0
10-01-2020 8.7 (15:10) -2 (-00:0) 3.3 13.33 (11:30) 9.44 (11:30) 0 0 0 0 0
09-01-2020 12.7 (16:00) -3 (-00:0) 4.8 10 (15:00) 7.5 (15:00) 0 0 0 0 0
08-01-2020 16.2 (15:10) -4.2 (-00:0) 6 4.72 (15:30) 3.33 (15:30) 0 0 0 0 0
07-01-2020 12.6 (16:30) -6.7 (-00:0) 3 7.22 (12:40) 5 (12:40) 0 0 0 0 0
06-01-2020 12.6 (15:30) -6.5 (-00:0) 3.1 6.67 (14:00) 4.72 (14:00) 0 0 0 0 0
05-01-2020 10.2 (16:10) -4.7 (-00:0) 2.8 3.33 (14:50) 2.22 (14:00) 0 0 0 0 0
04-01-2020 8.7 (15:30) -3.8 (-00:0) 2.4 5.28 (15:40) 3.61 (15:50) 0 0 0 0 0
03-01-2020 2.6 (16:20) -4.8 (-00:0) -1.1 8.89 (11:30) 6.67 (14:20) 0 0 0 0 0
02-01-2020 15.2 (15:30) -6.3 (-00:0) 4.4 3.89 (15:20) 2.78 (15:10) 0 0 0 0 0
01-01-2020 14.2 (15:50) -7 (-00:0) 3.6 5 (15:10) 3.33 (15:10) 0 0 0 0 0
31-12-2019 14.9 (15:10) -4.3 (-00:0) 5.3 4.44 (14:20) 3.33 (14:30) 0 0 0 0 0
30-12-2019 -- (--) -- (--) -- -- (--) -- (--) -- 0 0 0 --
29-12-2019 14.5 (14:50) -5.7 (-00:0) 4.4 2.78 (14:20) 1.67 (15:30) 0 0 0 0 0
28-12-2019 14.7 (16:50) -6.7 (-00:0) 4 3.61 (15:40) 2.78 (16:10) 0.2 0 0.2 0 0
27-12-2019 15 (15:40) -4.2 (-00:0) 5.4 2.5 (15:50) 1.67 (17:50) 0.2 0 0.2 0 0
26-12-2019 12 (13:10) -2.1 (-00:0) 5 8.33 (14:30) 5.83 (11:50) 0 0 0 0 0
25-12-2019 17.6 (15:50) -1 (-00:0) 8.3 4.17 (16:40) 2.78 (15:30) 0 0 0 0 0
24-12-2019 14.9 (16:20) 1.3 (23:59) 8.1 7.5 (14:20) 5 (14:10) 0 0 0 0 0
23-12-2019 10.5 (15:30) 4.1 (00:00) 7.3 12.78 (05:30) 8.89 (08:30) 0 0 0 0 0
22-12-2019 11.5 (14:50) 5 (23:40) 8.3 27.5 (03:20) 18.61 (03:50) 0 0 0 0 0
21-12-2019 15.1 (13:30) 7.1 (22:10) 11.1 29.44 (21:20) 19.72 (18:30) 5.2 0.8 3.6 0.8 0
20-12-2019 11.5 (02:20) 5.5 (00:00) 8.5 27.78 (02:10) 17.78 (02:10) 32.2 12.6 1.6 2.8 15.2

Gráficas

Temp. máximas Temp. mínimas Temp. medias Precipitaciones Rachas de viento máximas Velocidades máximas media en intervalos de 10 minutos

Datos horarios

Fecha y hora oficial Temperatura (ºC) Velocidad del viento (km/h) Dirección del viento Racha (km/h) Dirección de racha Precipitación (mm) Presión (hPa) Tendencia (hPa) Humedad (%)
2020-01-18 23:00:00 2.7 0 Calma 13 Oeste 0.2 -- -- 96
2020-01-18 22:00:00 2.2 9 Oeste 21 Oeste 0.6 -- -- 97
2020-01-18 21:00:00 1.4 20 Oeste 63 Oeste 4.2 -- -- 96
2020-01-18 20:00:00 5.7 31 Sur 46 Sudoeste 0 -- -- 89
2020-01-18 19:00:00 5.8 26 Sudoeste 51 Sudoeste 0 -- -- 90
2020-01-18 18:00:00 6 32 Sudoeste 49 Sudoeste 0 -- -- 89
2020-01-18 17:00:00 6.3 32 Sudoeste 58 Sur 0 -- -- 87
2020-01-18 16:00:00 6.4 37 Sudoeste 62 Sur 0 -- -- 84
2020-01-18 15:00:00 6.7 35 Sudoeste 53 Sur 0 -- -- 82
2020-01-18 14:00:00 5.7 22 Sudoeste 38 Sur 0 -- -- 85
2020-01-18 13:00:00 5.2 29 Sudoeste 46 Sudoeste 0 -- -- 86
2020-01-18 12:00:00 5.9 27 Sudoeste 46 Sudoeste 0 -- -- 83
2020-01-18 11:00:00 5 17 Sur 32 Sudoeste 0 -- -- 89
2020-01-18 10:00:00 4.8 19 Sudoeste 31 Sur 0 -- -- 86
2020-01-18 09:00:00 2.7 10 Sudoeste 23 Sudoeste 0 -- -- 97
2020-01-18 08:00:00 0 0 Calma 9 Norte 0 -- -- 94
2020-01-18 07:00:00 0.6 0 Calma 6 Sudeste 0 -- -- 93
2020-01-18 06:00:00 -0.4 3 Sudeste 8 Nordeste 0 -- -- 93
2020-01-18 05:00:00 -1.4 3 Sudeste 6 Nordeste 0 -- -- 95
2020-01-18 04:00:00 -1.3 5 Nordeste 8 Nordeste 0 -- -- 95
2020-01-18 03:00:00 -2.7 4 Sudeste 10 Sudeste 0 -- -- 98
2020-01-18 02:00:00 -3.3 6 Este 8 Nordeste 0 -- -- 97
2020-01-18 01:00:00 -3.7 2 Este 8 Nordeste 0 -- -- 97
2020-01-18 00:00:00 -3.3 0 Calma 7 Nordeste 0 -- -- 97
2020-01-17 23:00:00 -2.8 3 Nordeste 6 Este 0 -- -- 95
2020-01-17 22:00:00 -2.5 3 Oeste 6 Noroeste 0 -- -- 94
2020-01-17 21:00:00 -0.4 0 Calma 8 Oeste 0 -- -- 90
2020-01-17 20:00:00 1.2 5 Oeste 10 Sudoeste 0 -- -- 86
2020-01-17 19:00:00 2.6 5 Noroeste 21 Oeste 0 -- -- 82
2020-01-17 18:00:00 4.9 11 Oeste 32 Oeste 0 -- -- 71
2020-01-17 17:00:00 6.7 22 Oeste 41 Oeste 0 -- -- 64
2020-01-17 16:00:00 7.8 29 Oeste 48 Oeste 0 -- -- 60
2020-01-17 15:00:00 7.6 29 Oeste 47 Oeste 0 -- -- 66
2020-01-17 14:00:00 7.3 32 Oeste 47 Oeste 0 -- -- 67
2020-01-17 13:00:00 7.8 28 Oeste 46 Oeste 0 -- -- 76
2020-01-17 12:00:00 6.5 25 Oeste 42 Oeste 0 -- -- 81
2020-01-17 11:00:00 5.6 19 Sudoeste 27 Sudoeste 0.2 -- -- 89
2020-01-17 10:00:00 4.6 18 Sudoeste 28 Sudoeste 0.2 -- -- 91
2020-01-17 09:00:00 3.7 14 Oeste 24 Oeste 0 -- -- 95
2020-01-17 08:00:00 3.3 10 Noroeste 20 Sudoeste 0 -- -- 93
2020-01-17 07:00:00 2.5 10 Sur 19 Sudoeste 0 -- -- 94
2020-01-17 06:00:00 3.6 11 Sudoeste 31 Sudoeste 0 -- -- 88
2020-01-17 05:00:00 4.4 17 Sudoeste 33 Sudoeste 0 -- -- 83
2020-01-17 04:00:00 4.1 23 Sudoeste 39 Sudoeste 0 -- -- 85
2020-01-17 03:00:00 5.3 25 Sudoeste 38 Sudoeste 0 -- -- 82
2020-01-17 02:00:00 5.4 16 Sudoeste 33 Sudoeste 0.4 -- -- 83
2020-01-17 01:00:00 5.9 10 Oeste 37 Sudoeste 0 -- -- 84
2020-01-17 00:00:00 6.9 24 Sudoeste 39 Sudoeste 0 -- -- 80
2020-01-16 23:00:00 4.8 0 Calma 10 Este 0 -- -- 86
2020-01-16 22:00:00 2.8 7 Nordeste 11 Nordeste 0 -- -- 97
2020-01-16 21:00:00 2.6 5 Este 10 Este 0 -- -- 98
2020-01-16 20:00:00 2.7 0 Calma 8 Norte 0 -- -- 93
2020-01-16 19:00:00 4.5 5 Sur 21 Sur 0 -- -- 91
2020-01-16 18:00:00 7.1 13 Sudoeste 30 Sudoeste 0 -- -- 82
2020-01-16 17:00:00 9.4 20 Sudoeste 39 Sur 0 -- -- 76
2020-01-16 16:00:00 10 26 Sur 40 Sur 0 -- -- 75
2020-01-16 15:00:00 9.3 28 Sur 45 Sur 0 -- -- 81
2020-01-16 14:00:00 9.9 26 Sur 43 Sur 0 -- -- 80
2020-01-16 13:00:00 10.5 28 Sur 44 Sudoeste 0 -- -- 76
2020-01-16 12:00:00 9.8 25 Sur 41 Sur 0 -- -- 81
2020-01-16 11:00:00 8.7 18 Sur 27 Sur 0 -- -- 87
2020-01-16 10:00:00 7.2 15 Sur 26 Sur 0 -- -- 90
2020-01-16 09:00:00 6.2 8 Sur 15 Sur 0 -- -- 93
2020-01-16 08:00:00 5.1 5 Este 9 Este 0 -- -- 95
2020-01-16 07:00:00 5.9 5 Sudeste 9 Sur 0 -- -- 93
2020-01-16 06:00:00 5.6 7 Norte 14 Oeste 0 -- -- 94
2020-01-16 05:00:00 5.6 6 Oeste 26 Sur 0 -- -- 93
2020-01-16 04:00:00 5 2 Sur 10 Sudeste 0 -- -- 96
2020-01-16 03:00:00 4 3 Norte 21 Sur 0 -- -- 96
2020-01-16 02:00:00 4.3 13 Sudoeste 28 Sudoeste 0 -- -- 94
2020-01-16 01:00:00 5 17 Sur 27 Sur 0 -- -- 92
2020-01-16 00:00:00 5.2 7 Sudoeste 23 Sur 0 -- -- 91
2020-01-15 23:00:00 5 19 Sudoeste 38 Sudoeste 0 -- -- 92
2020-01-15 22:00:00 5 16 Sudoeste 33 Sudoeste 0 -- -- 92
2020-01-15 21:00:00 4.2 17 Sudoeste 33 Sur 0 -- -- 91
2020-01-15 20:00:00 4.5 20 Sudoeste 30 Sudoeste 0 -- -- 90
2020-01-15 19:00:00 4.5 21 Sudoeste 35 Sudoeste 0 -- -- 88
2020-01-15 18:00:00 6 24 Sudoeste 39 Sur 0 -- -- 82
2020-01-15 17:00:00 7 27 Sudoeste 42 Sudoeste 0 -- -- 77
2020-01-15 16:00:00 7.3 28 Sur 43 Sudoeste 0 -- -- 75
2020-01-15 15:00:00 8.7 27 Sudoeste 50 Sudoeste 0 -- -- 70
2020-01-15 14:00:00 7.5 33 Sudoeste 52 Sur 0 -- -- 75
2020-01-15 13:00:00 7.1 30 Sudoeste 44 Sudoeste 0 -- -- 76
2020-01-15 12:00:00 6 28 Sudoeste 45 Sudoeste 0 -- -- 81
2020-01-15 11:00:00 5.4 27 Sudoeste 44 Sudoeste 0 -- -- 83
2020-01-15 10:00:00 4.3 26 Sudoeste 38 Sudoeste 0 -- -- 87
2020-01-15 09:00:00 3.3 23 Sudoeste 38 Sur 0 -- -- 89
2020-01-15 08:00:00 2.8 21 Sudoeste 33 Sur 0 -- -- 89
2020-01-15 07:00:00 2.7 8 Sudoeste 23 Sur 0 -- -- 89
2020-01-15 06:00:00 2.8 13 Sudoeste 37 Sur 0 -- -- 90
2020-01-15 05:00:00 2.8 18 Sudoeste 48 Sudoeste 0 -- -- 92
2020-01-15 04:00:00 3.1 24 Sudoeste 39 Sur 0 -- -- 89
2020-01-15 03:00:00 2.8 22 Sur 41 Sur 0 -- -- 89
2020-01-15 02:00:00 2.5 28 Sudoeste 45 Sudoeste 0 -- -- 89
2020-01-15 01:00:00 1.7 22 Sur 33 Sudoeste 0 -- -- 87
2020-01-15 00:00:00 1.5 18 Sudoeste 33 Sur 0 -- -- 86
2020-01-14 23:00:00 1.1 16 Sudoeste 31 Sudoeste 0 -- -- 86
2020-01-14 22:00:00 1.3 20 Sur 34 Sudoeste 0 -- -- 85
2020-01-14 21:00:00 0.6 17 Sudoeste 23 Sudoeste 0 -- -- 87
2020-01-14 20:00:00 0.9 15 Sudoeste 22 Sudoeste 0 -- -- 83
2020-01-14 19:00:00 1 15 Sudoeste 21 Sur 0 -- -- 83
2020-01-14 18:00:00 2.4 10 Sudoeste 20 Sudoeste 0 -- -- 75
2020-01-14 17:00:00 6.3 10 Sudoeste 21 Sudoeste 0 -- -- 60
2020-01-14 16:00:00 6.2 12 Sudoeste 19 Oeste 0 -- -- 62
2020-01-14 15:00:00 4.8 11 Sudoeste 21 Sudoeste 0 -- -- 71
2020-01-14 14:00:00 1.3 13 Sudoeste 20 Sudoeste 0 -- -- 85
2020-01-14 13:00:00 0.6 12 Sudoeste 20 Sudoeste 0 -- -- 90
2020-01-14 12:00:00 -0.3 13 Oeste 26 Sudoeste 0 -- -- 95
2020-01-14 11:00:00 -0.3 14 Oeste 22 Sudoeste 0 -- -- 95
2020-01-14 10:00:00 -0.5 9 Sudoeste 16 Sudoeste 0 -- -- 93
2020-01-14 09:00:00 -0.9 8 Sudoeste 19 Oeste 0 -- -- 89
2020-01-14 08:00:00 -2.2 4 Oeste 11 Sudoeste 0 -- -- 98
2020-01-14 07:00:00 -3.9 0 Calma 4 Este 0 -- -- 97
2020-01-14 06:00:00 -4.3 0 Calma 8 Oeste 0 -- -- 96
2020-01-14 05:00:00 -2.9 4 Oeste 10 Oeste 0 -- -- 95
2020-01-14 04:00:00 -1.9 5 Oeste 15 Sudoeste 0 -- -- 92
2020-01-14 03:00:00 -1.4 7 Sudoeste 15 Sudoeste 0 -- -- 88
2020-01-14 02:00:00 -0.6 3 Oeste 8 Oeste 0 -- -- 88
2020-01-14 01:00:00 -0.4 5 Noroeste 21 Sudoeste 0 -- -- 89
2020-01-14 00:00:00 -0.3 8 Oeste 23 Sudoeste 0 -- -- 88
2020-01-13 23:00:00 0.7 15 Sudoeste 31 Sur 0 -- -- 83
2020-01-13 22:00:00 1.5 11 Sudoeste 26 Sudoeste 0 -- -- 78
2020-01-13 21:00:00 1.1 5 Oeste 17 Sudoeste 0 -- -- 78
2020-01-13 20:00:00 0.9 12 Sudoeste 26 Sur 0 -- -- 76
2020-01-13 19:00:00 1.4 12 Sudoeste 22 Sur 0 -- -- 72
2020-01-13 18:00:00 3.7 7 Sudoeste 20 Sudoeste 0 -- -- 62
2020-01-13 17:00:00 6.9 12 Oeste 21 Oeste 0 -- -- 53
2020-01-13 16:00:00 8.6 12 Sudoeste 19 Sudoeste 0 -- -- 47
2020-01-13 15:00:00 8.5 13 Sudoeste 22 Oeste 0 -- -- 48
2020-01-13 14:00:00 9.3 11 Sudoeste 30 Sudoeste 0 -- -- 44
2020-01-13 13:00:00 7.3 20 Sudoeste 30 Sudoeste 0 -- -- 52
2020-01-13 12:00:00 5.5 3 Noroeste 6 Noroeste 0 -- -- 65
2020-01-13 11:00:00 3.2 0 Calma 4 Sudeste 0 -- -- 74
2020-01-13 10:00:00 -3.6 3 Este 5 Este 0 -- -- 89
2020-01-13 09:00:00 -6.9 0 Calma 4 Este 0 -- -- 93
2020-01-13 08:00:00 -7.1 0 Calma 4 Este 0 -- -- 94
2020-01-13 07:00:00 -7.1 3 Este 4 Este 0 -- -- 94
2020-01-13 06:00:00 -7.2 0 Calma 6 Este 0 -- -- 95
2020-01-13 05:00:00 -7 3 Este 4 Este 0 -- -- 95
2020-01-13 04:00:00 -6.5 3 Nordeste 6 Este 0 -- -- 96
2020-01-13 03:00:00 -6.4 3 Este 5 Este 0 -- -- 95
2020-01-13 02:00:00 -6.3 3 Este 6 Este 0 -- -- 94
2020-01-13 01:00:00 -5.9 4 Este 6 Este 0 -- -- 95
2020-01-13 00:00:00 -5.6 2 Sudeste 5 Nordeste 0 -- -- 95
2020-01-12 23:00:00 -5.3 3 Nordeste 7 Nordeste 0 -- -- 94
2020-01-12 22:00:00 -4.5 4 Este 6 Este 0 -- -- 92
2020-01-12 21:00:00 -3.7 3 Este 5 Este 0 -- -- 91
2020-01-12 20:00:00 -2.4 0 Calma 6 Noroeste 0 -- -- 86
2020-01-12 19:00:00 0.2 4 Noroeste 11 Oeste 0 -- -- 80
2020-01-12 18:00:00 4 9 Oeste 18 Oeste 0 -- -- 71
2020-01-12 17:00:00 8 15 Oeste 24 Oeste 0 -- -- 59
2020-01-12 16:00:00 8.5 16 Oeste 30 Oeste 0 -- -- 60
2020-01-12 15:00:00 7.4 22 Oeste 33 Oeste 0 -- -- 67
2020-01-12 14:00:00 5.4 20 Oeste 26 Oeste 0 -- -- 91
2020-01-12 13:00:00 1.4 13 Oeste 19 Oeste 0 -- -- 96
2020-01-12 12:00:00 -1.6 6 Oeste 9 Oeste 0 -- -- 97
2020-01-12 11:00:00 -2.8 6 Oeste 10 Oeste 0 -- -- 98
2020-01-12 10:00:00 -3.6 6 Oeste 11 Oeste 0 -- -- 97
2020-01-12 09:00:00 -3.9 7 Oeste 10 Oeste 0 -- -- 97
2020-01-12 08:00:00 -3.7 9 Oeste 15 Oeste 0 -- -- 97
2020-01-12 07:00:00 -3.5 10 Oeste 15 Oeste 0 -- -- 97
2020-01-12 06:00:00 -4.8 4 Oeste 5 Noroeste 0 -- -- 96
2020-01-12 05:00:00 -6.4 4 Oeste 6 Oeste 0 -- -- 95
2020-01-12 04:00:00 -6.6 3 Oeste 5 Noroeste 0 -- -- 95
2020-01-12 03:00:00 -6.7 2 Oeste 5 Oeste 0 -- -- 95
2020-01-12 02:00:00 -7.2 3 Noroeste 6 Oeste 0 -- -- 95
2020-01-12 01:00:00 -7.6 3 Oeste 4 Oeste 0 -- -- 95
2020-01-12 00:00:00 -7.4 0 Calma 2 Sudoeste 0 -- -- 94
2020-01-11 23:00:00 -6.3 0 Calma 2 Sudeste 0 -- -- 94
2020-01-11 22:00:00 -5.3 0 Calma 3 Noroeste 0 -- -- 92
2020-01-11 21:00:00 -4.7 2 Oeste 4 Oeste 0 -- -- 87
2020-01-11 20:00:00 -2.3 3 Noroeste 6 Oeste 0 -- -- 73
2020-01-11 19:00:00 -1.9 4 Oeste 15 Oeste 0 -- -- 72
2020-01-11 18:00:00 3 11 Oeste 20 Oeste 0 -- -- 51
2020-01-11 17:00:00 7.9 13 Oeste 22 Oeste 0 -- -- 42
2020-01-11 16:00:00 8.8 13 Oeste 22 Oeste 0 -- -- 37
2020-01-11 15:00:00 8.1 13 Oeste 19 Oeste 0 -- -- 48
2020-01-11 14:00:00 6 11 Oeste 15 Noroeste 0 -- -- 68
2020-01-11 13:00:00 2.5 9 Oeste 13 Oeste 0 -- -- 95
2020-01-11 12:00:00 -0.6 0 Calma -- -- 0 -- -- 97
2020-01-11 11:00:00 -2.5 0 Calma -- -- 0 -- -- 97
2020-01-11 10:00:00 -3 0 Calma 9 Oeste 0 -- -- 97
2020-01-11 09:00:00 -3.3 6 Noroeste 13 Oeste 0 -- -- 98
2020-01-11 08:00:00 -3.2 4 Oeste 10 Oeste 0 -- -- 98
2020-01-11 07:00:00 -5.1 2 Noroeste 8 Oeste 0 -- -- 97
2020-01-11 06:00:00 -5.5 0 Calma 4 Oeste 0 -- -- 97
2020-01-11 05:00:00 -5.1 5 Oeste 8 Oeste 0 -- -- 96
2020-01-11 04:00:00 -4.7 4 Oeste 15 Oeste 0 -- -- 94
2020-01-11 03:00:00 -2.3 14 Noroeste 19 Noroeste 0 -- -- 90
2020-01-11 02:00:00 -1.1 4 Noroeste 18 Noroeste 0 -- -- 85
2020-01-11 01:00:00 1.4 9 Oeste 37 Norte 0 -- -- 79
2020-01-11 00:00:00 2.2 21 Norte 35 Norte 0 -- -- 79
2020-01-10 23:00:00 -0.8 7 Sur 19 Norte 0 -- -- 92
2020-01-10 22:00:00 0.7 15 Noroeste 23 Norte 0 -- -- 85
2020-01-10 21:00:00 2.2 15 Norte 32 Norte 0 -- -- 78
2020-01-10 20:00:00 2.6 17 Norte 22 Noroeste 0 -- -- 79
2020-01-10 19:00:00 3.5 10 Oeste 31 Norte 0 -- -- 75
2020-01-10 18:00:00 4.7 24 Norte 41 Norte 0 -- -- 69
2020-01-10 17:00:00 6.1 30 Norte 41 Norte 0 -- -- 63
2020-01-10 16:00:00 8.2 20 Norte 39 Norte 0 -- -- 58
2020-01-10 15:00:00 8.2 27 Norte 35 Norte 0 -- -- 56
2020-01-10 14:00:00 7.4 22 Norte 36 Norte 0 -- -- 57
2020-01-10 13:00:00 7.4 22 Noroeste 37 Norte 0 -- -- 58
2020-01-10 12:00:00 5.7 20 Noroeste 48 Norte 0 -- -- 62
2020-01-10 11:00:00 4.9 11 Oeste 21 Oeste 0 -- -- 76
2020-01-10 10:00:00 1.4 13 Noroeste 26 Oeste 0 -- -- 92
2020-01-10 09:00:00 -0.9 13 Oeste 18 Oeste 0 -- -- 97
2020-01-10 08:00:00 -1.5 8 Oeste 14 Oeste 0 -- -- 99
2020-01-10 07:00:00 -1.2 9 Noroeste 12 Noroeste 0 -- -- 97
2020-01-10 06:00:00 -0.1 6 Oeste 12 Oeste 0 -- -- 93
2020-01-10 05:00:00 1.8 7 Oeste 15 Oeste 0 -- -- 90
2020-01-10 04:00:00 1.1 5 Oeste 19 Oeste 0 -- -- 92
2020-01-10 03:00:00 2.5 13 Oeste 24 Oeste 0 -- -- 88
2020-01-10 02:00:00 3.8 14 Oeste 31 Oeste 0 -- -- 87
2020-01-10 01:00:00 6.2 21 Oeste 30 Oeste 0 -- -- 84
2020-01-10 00:00:00 6.1 16 Oeste 25 Oeste 0 -- -- 91
2020-01-09 23:00:00 6.3 3 Noroeste 17 Oeste 0 -- -- 93
2020-01-09 22:00:00 4.3 2 Sudoeste 4 Oeste 0 -- -- 94
2020-01-09 21:00:00 4.9 0 Calma 6 Oeste 0 -- -- 93
2020-01-09 20:00:00 6.2 6 Oeste 19 Oeste 0 -- -- 87
2020-01-09 19:00:00 6.7 12 Oeste 21 Sudoeste 0 -- -- 75
2020-01-09 18:00:00 7.7 7 Sudoeste 25 Oeste 0 -- -- 77
2020-01-09 17:00:00 11.3 15 Oeste 33 Oeste 0 -- -- 68
2020-01-09 16:00:00 12.7 13 Oeste 33 Oeste 0 -- -- 61
2020-01-09 15:00:00 11.2 27 Oeste 36 Oeste 0 -- -- 67
2020-01-09 14:00:00 11.8 14 Oeste 24 Oeste 0 -- -- 58
2020-01-09 13:00:00 11.3 11 Oeste 15 Oeste 0 -- -- 59
2020-01-09 12:00:00 8.6 8 Oeste 12 Oeste 0 -- -- 66
2020-01-09 11:00:00 6.8 10 Oeste 15 Oeste 0 -- -- 72
2020-01-09 10:00:00 4 4 Sur 9 Este 0 -- -- 81
2020-01-09 09:00:00 -2.9 7 Nordeste 9 Este 0 -- -- 95
2020-01-09 08:00:00 -2.8 5 Nordeste 9 Nordeste 0 -- -- 96
2020-01-09 07:00:00 -2.6 5 Este 9 Nordeste 0 -- -- 96
2020-01-09 06:00:00 -2.5 6 Nordeste 8 Nordeste 0 -- -- 96
2020-01-09 05:00:00 -2.5 5 Este 7 Este 0 -- -- 96
2020-01-09 04:00:00 -2.4 5 Este 8 Este 0 -- -- 96
2020-01-09 03:00:00 -2.5 3 Este 5 Este 0 -- -- 96
2020-01-09 02:00:00 -2.1 3 Este 5 Este 0 -- -- 97
2020-01-09 01:00:00 -2 4 Este 5 Este 0 -- -- 94
2020-01-09 00:00:00 -1.5 4 Este 7 Nordeste 0 -- -- 95
2020-01-08 23:00:00 -0.6 7 Este 9 Este 0 -- -- 95
2020-01-08 22:00:00 0.3 2 Este 6 Este 0 -- -- 92
2020-01-08 21:00:00 1.1 4 Este 7 Este 0 -- -- 90
2020-01-08 20:00:00 2 5 Nordeste 9 Nordeste 0 -- -- 88
2020-01-08 19:00:00 3.7 4 Este 8 Este 0 -- -- 81
2020-01-08 18:00:00 7.9 4 Este 16 Este 0 -- -- 68
2020-01-08 17:00:00 11.9 9 Este 16 Sudeste 0 -- -- 54
2020-01-08 16:00:00 13.1 10 Sudeste 17 Sudeste 0 -- -- 51
2020-01-08 15:00:00 15.4 0 Calma 8 Sur 0 -- -- 45
2020-01-08 14:00:00 12.5 3 Sudoeste 9 Oeste 0 -- -- 47
2020-01-08 13:00:00 9.5 8 Oeste 13 Oeste 0 -- -- 49
2020-01-08 12:00:00 7 8 Oeste 12 Oeste 0 -- -- 58
2020-01-08 11:00:00 4.6 5 Oeste 8 Oeste 0 -- -- 71
2020-01-08 10:00:00 2.4 0 Calma 5 Noroeste 0 -- -- 78
2020-01-08 09:00:00 -3 4 Noroeste 10 Oeste 0 -- -- 97
2020-01-08 08:00:00 -2.6 7 Oeste 11 Oeste 0 -- -- 97
2020-01-08 07:00:00 -2.9 4 Oeste 6 Oeste 0 -- -- 96
2020-01-08 06:00:00 -3.6 0 Calma 4 Oeste 0 -- -- 96
2020-01-08 05:00:00 -3.9 3 Oeste 6 Noroeste 0 -- -- 95
2020-01-08 04:00:00 -3.9 7 Oeste 9 Oeste 0 -- -- 94
2020-01-08 03:00:00 -3.5 3 Nordeste 6 Noroeste 0 -- -- 92
2020-01-08 02:00:00 -3.4 4 Oeste 6 Oeste 0 -- -- 90
2020-01-08 01:00:00 -3.4 0 Calma 4 Noroeste 0 -- -- 92
2020-01-08 00:00:00 -3.4 2 Oeste 4 Oeste 0 -- -- 90
2020-01-07 23:00:00 -1.9 0 Calma 5 Sudoeste 0 -- -- 86
2020-01-07 22:00:00 -1.4 5 Noroeste 7 Noroeste 0 -- -- 84
2020-01-07 21:00:00 -1.4 0 Calma 6 Noroeste 0 -- -- 88
2020-01-07 20:00:00 0.7 5 Noroeste 9 Sudoeste 0 -- -- 79
2020-01-07 19:00:00 1.7 4 Oeste 10 Oeste 0 -- -- 72
2020-01-07 18:00:00 4.5 5 Oeste 15 Oeste 0 -- -- 63
2020-01-07 17:00:00 11.1 11 Oeste 18 Oeste 0 -- -- 43
2020-01-07 16:00:00 11.2 15 Oeste 23 Oeste 0 -- -- 40
2020-01-07 15:00:00 9.7 15 Oeste 25 Oeste 0 -- -- 42
2020-01-07 14:00:00 9.5 18 Oeste 25 Oeste 0 -- -- 45
2020-01-07 13:00:00 7.1 14 Oeste 26 Oeste 0 -- -- 57
2020-01-07 12:00:00 4.6 13 Oeste 18 Oeste 0 -- -- 72
2020-01-07 11:00:00 1.9 8 Oeste 11 Oeste 0 -- -- 81
2020-01-07 10:00:00 -1.4 2 Noroeste 4 Noroeste 0 -- -- 93
2020-01-07 09:00:00 -6.4 0 Calma 2 Nordeste 0 -- -- 97
2020-01-07 08:00:00 -6.4 0 Calma 0 Calma 0 -- -- 96
2020-01-07 07:00:00 -5.9 0 Calma 4 Norte 0 -- -- 97
2020-01-07 06:00:00 -5.3 0 Calma -- -- 0 -- -- 99
2020-01-07 05:00:00 -4.8 0 Calma 3 Nordeste 0 -- -- 97
2020-01-07 04:00:00 -4.7 4 Nordeste 6 Nordeste 0 -- -- 98
2020-01-07 03:00:00 -4.7 0 Calma 4 Sudeste 0 -- -- 96
2020-01-07 02:00:00 -4.3 2 Nordeste 4 Nordeste 0 -- -- 96
2020-01-07 01:00:00 -4 0 Calma 6 Este 0 -- -- 96
2020-01-07 00:00:00 -3.5 0 Calma 5 Este 0 -- -- 94
2020-01-06 23:00:00 -2.9 3 Este 5 Este 0 -- -- 93
2020-01-06 22:00:00 -2.3 0 Calma 7 Nordeste 0 -- -- 91
2020-01-06 21:00:00 -1.7 3 Este 4 Este 0 -- -- 86
2020-01-06 20:00:00 -0.5 2 Sur 4 Noroeste 0 -- -- 84
2020-01-06 19:00:00 1 0 Calma 6 Oeste 0 -- -- 79
2020-01-06 18:00:00 5.9 6 Oeste 14 Oeste 0 -- -- 60
2020-01-06 17:00:00 11.8 8 Sudoeste 15 Oeste 0 -- -- 45
2020-01-06 16:00:00 12.3 13 Oeste 19 Oeste 0 -- -- 36
2020-01-06 15:00:00 12 15 Oeste 24 Noroeste 0 -- -- 41
2020-01-06 14:00:00 10.6 17 Oeste 24 Oeste 0 -- -- 44
2020-01-06 13:00:00 7.7 6 Oeste 12 Oeste 0 -- -- 65
2020-01-06 12:00:00 5.3 5 Oeste 7 Oeste 0 -- -- 75
2020-01-06 11:00:00 4 2 Noroeste 5 Oeste 0 -- -- 83
2020-01-06 10:00:00 -1.2 2 Este 3 Este 0 -- -- 96